Neosho Falls, Kansas
Current Conditions -  °F | °C
As of 12:52 PM on Monday 20 Oct 2014 (Local Time) from KCNU Reporting Station
Clear Clear  
Wind Chill: 74°   Ceiling: Unl
Heat Index: 74°   Visibility: 10mi
Dew Point: 57°   Wind: 5mph
Humidity: 55%   Direction: 10°N
Pressure: 30.06"   Gusts: NA
Location:  38.01°N, 95.56°W
Report Text: KCNU 201752Z AUTO 01004KT 10SM CLR 23/14 A3006 RMK AO2 SLP171 T02330139 10233 20128 58006
Loading
Personal Weather Stations






























Interactive Weather Map New forecast layout! Learn more

10-Day Weather Forecast

Advertisements
Track Severe Weather on mobile